Terminal Aerodrome Forecast
Issued by NWS Omaha/Valley, NE

Home | Current Version | Previous Version | Graphics & Text | Print | Product List | Glossary On
Versions: 1 2 3 4 5 6 7 8 9 10 11 12 13 14 15 16 17 18 19 20 21 22 23 24 25 26 27 28 29 30 31 32 33 34
000
FTUS43 KOAX 010520
TAFOFK
TAF
KOFK 010520Z 0106/0206 09005KT P6SM SCT080
     FM010900 VRB03KT 6SM BR SCT250
      TEMPO 0110/0113 3SM BR SCT005
     FM011600 09005KT P6SM SCT050 SCT250
     FM012100 05006KT P6SM BKN090=

USA.gov is the U.S. government's official web portal to all federal, state and local government web resources and services.